Main page
METAR-TAF:

METAR-TAF

Airports :

Hartford–Brainard Airport

Hartford, Connecticut, United States

latitude: 41-44-06N, longitude: 072-39-06W, elevation: 16 ft

Current weather observation

The report was made 52 minutes ago, at 01:53 UTC
Calm wind
Temperature 28°F
Humidity 74%
Pressure 30.38 in. Hg
Visibility: 10 miles
Scattered clouds at a height of 3000 ft

METAR: KHFD 090153Z 00000KT 10SM SCT030 M02/M06 A3038 RMK AO2 SLP288 T10221056

Time: 21:45 (02:45 UTC)


TAF: missing

Weather observations and forecasts of more than 4000 airports (METAR and TAF reports).

The available stations are represented by yellow and red dots on the map.

Hover mouse over dot to see the name of the station.

Then click to see weather observations and forecasts.

To change the map : click on the green buttons with a black cross to zoom in, on the green button with a dash to zoom out, or on the green arrows for adjacent maps.


METAR-TAF: